Time;durP1;ratioP1;P1;durP2;ratioP2;P2;SDS_P1;SDS_P2;PMS_P1;PMS_P2;Temp;Humidity;BMP_temperature;BMP_pressure;BME280_temperature;BME280_humidity;BME280_pressure;Samples;Min_cycle;Max_cycle;Signal;HPM_P1;HPM_P2
2022/04/01 00:00:39;;;;;;;1.73;1.63;;;6.70;99.90;6.10;96280.00;;;;5033725;28;20283;-73
2022/04/01 00:03:06;;;;;;;1.17;1.17;;;6.70;99.90;6.00;96279.00;;;;5033618;28;20510;-73
2022/04/01 00:05:36;;;;;;;7.37;2.23;;;6.70;99.90;6.10;96283.00;;;;5033662;28;20259;-73
2022/04/01 00:08:03;;;;;;;1.10;1.10;;;6.70;99.90;6.10;96276.00;;;;5033528;28;20224;-73
2022/04/01 00:10:30;;;;;;;1.20;1.20;;;6.70;99.90;6.10;96243.00;;;;5033805;28;20205;-73
2022/04/01 00:12:57;;;;;;;1.57;1.50;;;6.70;99.90;6.10;96281.00;;;;5033677;28;20283;-73
2022/04/01 00:15:24;;;;;;;2.17;2.07;;;6.80;99.90;6.10;96278.00;;;;5033518;28;20240;-73
2022/04/01 00:17:52;;;;;;;1.00;1.00;;;6.80;99.90;6.10;96279.00;;;;5033540;28;20197;-74
2022/04/01 00:20:19;;;;;;;1.60;1.13;;;6.70;99.90;6.00;96274.00;;;;5033757;28;20223;-73
2022/04/01 00:22:47;;;;;;;1.60;1.57;;;6.70;99.90;6.10;96250.00;;;;5033605;28;20252;-73
2022/04/01 00:25:14;;;;;;;1.27;1.23;;;6.70;99.90;5.90;96276.00;;;;5035440;28;20193;-73
2022/04/01 00:27:41;;;;;;;1.30;1.30;;;6.60;99.20;5.90;96280.00;;;;5037090;28;20192;-73
2022/04/01 00:30:09;;;;;;;1.67;1.57;;;6.60;99.80;5.90;96282.00;;;;5037834;28;20686;-73
2022/04/01 00:32:36;;;;;;;0.87;0.87;;;6.60;99.50;5.80;96278.00;;;;5037812;28;20295;-73
2022/04/01 00:35:03;;;;;;;2.00;1.90;;;6.50;99.30;5.80;96281.00;;;;5042236;28;20537;-73
2022/04/01 00:37:30;;;;;;;1.53;1.50;;;6.50;99.70;5.70;96278.00;;;;5040703;28;20204;-73
2022/04/01 00:39:58;;;;;;;1.43;1.37;;;6.40;99.40;5.90;96280.00;;;;5039202;28;20194;-73
2022/04/01 00:42:27;;;;;;;1.23;1.23;;;6.40;99.30;5.80;96276.00;;;;5019756;28;20642;-73
2022/04/01 00:44:54;;;;;;;1.43;1.43;;;6.40;98.70;5.80;96288.00;;;;5036854;28;20708;-73
2022/04/01 00:47:20;;;;;;;1.30;1.20;;;6.40;99.60;5.70;96270.00;;;;5036694;28;20649;-73
2022/04/01 00:49:48;;;;;;;1.57;1.47;;;6.40;99.60;5.70;96277.00;;;;5036690;28;20255;-73
2022/04/01 00:52:20;;;;;;;2.37;2.27;;;6.40;99.20;5.70;96277.00;;;;5036684;28;20207;-73
2022/04/01 00:54:48;;;;;;;2.70;1.43;;;6.40;99.40;5.70;96262.00;;;;5036482;28;20286;-74
2022/04/01 00:57:18;;;;;;;0.70;0.70;;;6.40;99.50;5.60;96278.00;;;;5036714;28;20296;-73
2022/04/01 00:59:48;;;;;;;1.80;1.70;;;6.30;99.70;5.70;96248.00;;;;5036650;28;20530;-73
2022/04/01 01:02:16;;;;;;;1.53;1.43;;;6.40;99.60;5.60;96274.00;;;;5036297;28;20220;-73
2022/04/01 01:04:42;;;;;;;1.23;1.23;;;6.30;99.50;5.50;96279.00;;;;5036476;28;20205;-73
2022/04/01 01:07:09;;;;;;;1.57;1.47;;;6.30;99.90;5.50;96283.00;;;;5018985;28;20502;-73
2022/04/01 01:09:38;;;;;;;1.20;1.20;;;6.20;99.90;5.60;96263.00;;;;5036483;28;20307;-74
2022/04/01 01:12:07;;;;;;;1.10;1.10;;;6.30;99.90;5.60;96271.00;;;;5036381;28;20284;-73
2022/04/01 01:14:38;;;;;;;1.33;1.33;;;6.30;99.90;5.60;96237.00;;;;5036127;28;20323;-74
2022/04/01 01:17:11;;;;;;;1.90;1.43;;;6.20;99.90;5.50;96270.00;;;;5036369;28;20204;-73
2022/04/01 01:19:39;;;;;;;0.90;0.90;;;6.20;99.90;5.50;96272.00;;;;5036479;28;20185;-74
2022/04/01 01:22:08;;;;;;;2.77;1.87;;;6.20;99.90;5.50;96269.00;;;;5038388;28;20311;-73
2022/04/01 01:24:37;;;;;;;1.40;1.30;;;6.20;99.70;5.30;96262.00;;;;5024380;28;20228;-73
2022/04/01 01:27:08;;;;;;;1.37;1.33;;;6.10;99.90;5.40;96267.00;;;;5043964;28;20207;-73
2022/04/01 01:29:37;;;;;;;1.13;1.13;;;6.10;99.90;5.40;96281.00;;;;5038701;28;20196;-73
2022/04/01 01:32:09;;;;;;;0.90;0.90;;;6.10;99.90;5.30;96276.00;;;;5038928;28;20205;-73
2022/04/01 01:34:40;;;;;;;2.50;2.40;;;6.00;99.90;5.30;96260.00;;;;5021637;28;20347;-73
2022/04/01 01:37:10;;;;;;;0.90;0.90;;;6.00;99.90;5.40;96273.00;;;;5038233;28;20222;-73
2022/04/01 01:39:38;;;;;;;1.87;1.77;;;6.00;99.90;5.40;96266.00;;;;5038955;28;20231;-73
2022/04/01 01:42:06;;;;;;;1.70;1.57;;;6.10;99.90;5.30;96276.00;;;;5038417;28;20224;-73
2022/04/01 01:44:32;;;;;;;1.20;1.20;;;6.00;99.80;5.30;96273.00;;;;5039604;28;20635;-74
2022/04/01 01:46:59;;;;;;;2.00;1.83;;;6.00;99.90;5.30;96267.00;;;;5037547;28;20629;-73
2022/04/01 01:49:28;;;;;;;1.30;1.30;;;6.00;99.90;5.30;96273.00;;;;5037543;28;20208;-73
2022/04/01 01:54:43;;;;;;;1.20;1.20;;;6.10;99.90;5.40;96275.00;;;;5039342;28;20244;-74
2022/04/01 01:57:11;;;;;;;0.97;0.97;;;6.10;99.90;5.40;96269.00;;;;5038895;28;20536;-74
2022/04/01 01:59:38;;;;;;;0.80;0.80;;;6.10;99.90;5.30;96265.00;;;;5035823;28;20235;-74
2022/04/01 02:02:08;;;;;;;1.60;1.50;;;6.10;99.90;5.40;96271.00;;;;5035753;28;20691;-73
2022/04/01 02:04:35;;;;;;;1.43;1.43;;;6.10;99.90;5.40;96269.00;;;;5035519;28;20247;-74
2022/04/01 02:07:02;;;;;;;1.37;1.13;;;6.10;99.90;5.30;96270.00;;;;5035524;28;20640;-73
2022/04/01 02:09:29;;;;;;;2.43;2.23;;;6.10;99.90;5.50;96268.00;;;;5035496;28;20275;-73
2022/04/01 02:11:56;;;;;;;1.07;1.07;;;6.10;99.90;5.50;96269.00;;;;5018080;28;20227;-73
2022/04/01 02:14:23;;;;;;;1.67;1.40;;;6.20;99.90;5.30;96265.00;;;;5035184;28;20311;-73
2022/04/01 02:16:50;;;;;;;1.27;1.27;;;6.10;99.70;5.30;96268.00;;;;5035424;28;20240;-74
2022/04/01 02:19:21;;;;;;;1.43;1.33;;;6.00;99.90;5.30;96266.00;;;;5035301;28;20698;-73
2022/04/01 02:21:51;;;;;;;1.87;1.67;;;6.00;98.90;5.30;96267.00;;;;5035203;28;20660;-73
2022/04/01 02:24:22;;;;;;;1.20;1.20;;;6.00;99.80;5.30;96260.00;;;;5035351;28;20235;-74
2022/04/01 02:26:49;;;;;;;1.40;1.40;;;6.00;99.40;5.20;96265.00;;;;5035295;28;20204;-73
2022/04/01 02:29:18;;;;;;;1.00;1.00;;;6.00;99.50;5.30;96262.00;;;;5035109;28;20291;-73
2022/04/01 02:31:45;;;;;;;0.90;0.90;;;5.90;99.40;5.30;96261.00;;;;5035063;28;20197;-73
2022/04/01 02:34:12;;;;;;;1.17;1.17;;;6.00;99.20;5.30;96267.00;;;;5034880;28;20736;-74
2022/04/01 02:36:38;;;;;;;1.20;1.20;;;6.00;99.20;5.30;96210.00;;;;5035051;28;20231;-73
2022/04/01 02:39:07;;;;;;;2.67;2.57;;;6.00;99.80;5.20;96269.00;;;;5035071;28;20212;-73
2022/04/01 02:41:38;;;;;;;0.97;0.97;;;6.00;99.10;5.30;96264.00;;;;5034858;28;20319;-73
2022/04/01 02:44:12;;;;;;;0.77;0.77;;;6.00;99.00;5.30;96270.00;;;;5034960;28;20218;-73
2022/04/01 02:46:44;;;;;;;1.43;1.33;;;6.00;99.20;5.20;96260.00;;;;5034335;28;20532;-73
2022/04/01 02:49:15;;;;;;;1.27;1.27;;;5.90;99.50;5.20;96252.00;;;;5017277;28;20628;-73
2022/04/01 02:51:44;;;;;;;1.20;1.20;;;5.90;99.90;5.20;96275.00;;;;5034836;28;20200;-73
2022/04/01 02:54:11;;;;;;;1.93;1.60;;;5.90;99.40;5.30;96268.00;;;;5034622;28;20366;-73
2022/04/01 02:56:40;;;;;;;0.90;0.90;;;5.90;99.80;5.20;96266.00;;;;5034759;28;20196;-74
2022/04/01 02:59:09;;;;;;;1.57;1.47;;;5.90;99.90;5.10;96262.00;;;;5034757;28;20189;-73
2022/04/01 03:01:38;;;;;;;1.57;1.47;;;5.90;99.90;5.30;96275.00;;;;5034658;28;20216;-74
2022/04/01 03:04:09;;;;;;;2.47;1.93;;;5.90;99.90;5.00;96273.00;;;;5017381;28;20645;-73
2022/04/01 03:06:35;;;;;;;1.30;1.30;;;5.80;99.90;5.10;96282.00;;;;5034912;28;20644;-73
2022/04/01 03:09:02;;;;;;;1.80;1.70;;;5.90;99.90;5.10;96273.00;;;;5034735;28;20235;-74
2022/04/01 03:11:28;;;;;;;1.50;1.50;;;5.80;99.90;5.10;96278.00;;;;5034737;28;20295;-74
2022/04/01 03:13:55;;;;;;;3.27;3.07;;;5.80;99.90;5.00;96277.00;;;;5034544;28;20252;-74
2022/04/01 03:16:22;;;;;;;2.53;1.83;;;5.80;99.90;5.10;96271.00;;;;5017477;28;20208;-74
2022/04/01 03:18:49;;;;;;;9.73;2.60;;;5.70;99.90;5.10;96277.00;;;;5034529;28;20208;-73
2022/04/01 03:21:16;;;;;;;1.97;1.87;;;5.80;99.90;5.10;96282.00;;;;5034719;28;20242;-73
2022/04/01 03:23:44;;;;;;;2.80;2.60;;;5.80;99.90;5.10;96272.00;;;;5034630;28;20192;-73
2022/04/01 03:26:11;;;;;;;1.40;1.40;;;5.90;99.90;5.10;96286.00;;;;5034416;28;20211;-73
2022/04/01 03:28:38;;;;;;;2.50;2.30;;;5.70;99.90;5.00;96286.00;;;;5034134;28;20263;-73
2022/04/01 03:31:06;;;;;;;2.77;2.67;;;5.80;99.90;5.00;96283.00;;;;5034160;28;20208;-72
2022/04/01 03:33:34;;;;;;;3.60;2.73;;;5.70;99.90;5.00;96258.00;;;;5016554;28;20211;-73
2022/04/01 03:36:01;;;;;;;2.97;2.77;;;5.70;99.90;4.90;96295.00;;;;5034155;28;20212;-72
2022/04/01 03:38:29;;;;;;;1.97;1.87;;;5.70;99.90;4.90;96293.00;;;;5034074;28;20250;-73
2022/04/01 03:40:57;;;;;;;2.43;2.33;;;5.60;99.90;4.90;96289.00;;;;5033959;28;20223;-73
2022/04/01 03:43:25;;;;;;;2.40;2.30;;;5.70;99.90;5.00;96283.00;;;;5033798;28;20220;-73
2022/04/01 03:45:55;;;;;;;2.80;2.07;;;5.60;99.90;5.00;96302.00;;;;5033946;28;20200;-72
2022/04/01 03:48:29;;;;;;;1.37;1.37;;;5.70;99.90;4.80;96281.00;;;;5033986;28;20650;-73
2022/04/01 03:50:57;;;;;;;2.30;2.10;;;5.60;99.90;4.70;96276.00;;;;5034015;28;20191;-73
2022/04/01 03:53:28;;;;;;;7.63;2.40;;;5.50;99.90;4.70;96292.00;;;;5033982;28;20247;-73
2022/04/01 03:55:56;;;;;;;1.07;1.07;;;5.50;99.90;4.80;96300.00;;;;5033883;28;20232;-73
2022/04/01 03:58:29;;;;;;;1.57;1.47;;;5.50;99.90;4.70;96292.00;;;;5033798;28;20220;-73
2022/04/01 04:01:00;;;;;;;2.03;1.77;;;5.50;99.90;4.80;96298.00;;;;5033730;28;20310;-73
2022/04/01 04:03:27;;;;;;;2.73;2.20;;;5.50;99.90;4.70;96304.00;;;;5016356;28;20226;-73
2022/04/01 04:05:54;;;;;;;3.07;2.40;;;5.40;99.90;4.80;96286.00;;;;5033817;28;20239;-73
2022/04/01 04:08:22;;;;;;;3.27;3.03;;;5.50;99.90;4.70;96297.00;;;;5033702;28;20255;-75
2022/04/01 04:10:52;;;;;;;1.43;1.37;;;5.50;99.90;4.70;96302.00;;;;5015667;28;20216;-73
2022/04/01 04:13:25;;;;;;;2.00;1.90;;;5.50;99.90;4.80;96298.00;;;;5033530;28;20209;-73
2022/04/01 04:16:04;;;;;;;2.07;1.97;;;5.50;99.90;4.60;96297.00;;;;5016309;28;20546;-72
2022/04/01 04:18:42;;;;;;;2.30;2.03;;;5.40;99.90;4.80;96287.00;;;;5016021;28;20200;-74
2022/04/01 04:21:25;;;;;;;2.00;1.90;;;5.40;99.90;4.80;96304.00;;;;5016349;28;20322;-73
2022/04/01 04:23:56;;;;;;;1.23;1.23;;;5.50;99.90;4.60;96305.00;;;;5033475;28;20201;-72
2022/04/01 04:26:31;;;;;;;1.83;1.77;;;5.40;99.90;4.70;96310.00;;;;5033360;28;20188;-73
2022/04/01 04:29:06;;;;;;;1.17;1.17;;;5.40;99.90;4.80;96314.00;;;;5016419;28;20226;-72
2022/04/01 04:31:38;;;;;;;2.40;1.60;;;5.50;99.90;4.70;96310.00;;;;5033468;28;20200;-73
2022/04/01 04:34:10;;;;;;;1.87;1.77;;;5.40;99.90;4.70;96311.00;;;;5033173;28;20228;-72
2022/04/01 04:36:39;;;;;;;1.77;1.67;;;5.40;99.90;4.60;96320.00;;;;5033300;28;20226;-73
2022/04/01 04:39:10;;;;;;;1.93;1.83;;;5.30;99.90;4.60;96316.00;;;;5033494;28;20287;-73
2022/04/01 04:41:38;;;;;;;2.30;2.13;;;5.30;99.90;4.50;96308.00;;;;5033286;28;20199;-73
2022/04/01 04:44:05;;;;;;;1.33;1.27;;;5.20;99.90;4.70;96320.00;;;;5033290;28;20283;-73
2022/04/01 04:46:34;;;;;;;2.10;1.87;;;5.40;99.90;4.60;96320.00;;;;5015610;28;20213;-73
2022/04/01 04:49:03;;;;;;;1.07;1.07;;;5.40;99.90;4.60;96315.00;;;;5033146;28;20250;-73
2022/04/01 04:51:31;;;;;;;1.93;1.83;;;5.30;99.90;4.60;96318.00;;;;5033805;28;20242;-73
2022/04/01 04:53:59;;;;;;;3.00;2.73;;;5.30;99.90;4.50;96326.00;;;;5033982;28;20236;-73
2022/04/01 04:56:27;;;;;;;3.30;2.40;;;5.40;99.90;4.50;96324.00;;;;5037869;28;20200;-73
2022/04/01 04:58:56;;;;;;;2.50;1.90;;;5.20;99.90;4.60;96311.00;;;;5033071;28;20200;-72
2022/04/01 05:01:35;;;;;;;2.27;2.07;;;5.20;99.90;4.50;96335.00;;;;5032864;28;20240;-73
2022/04/01 05:04:54;;;;;;;1.20;1.20;;;5.30;99.90;4.50;96332.00;;;;5033020;28;20200;-73
2022/04/01 05:07:39;;;;;;;3.40;2.50;;;5.20;99.90;4.50;96339.00;;;;5032874;28;20305;-73
2022/04/01 05:10:16;;;;;;;1.83;1.73;;;5.10;99.90;4.50;96333.00;;;;5033129;28;20224;-73
2022/04/01 05:12:56;;;;;;;1.40;1.40;;;5.20;99.90;4.40;96345.00;;;;5018902;28;20644;-73
2022/04/01 05:15:31;;;;;;;1.90;1.80;;;5.20;99.90;4.20;96352.00;;;;5018694;28;20663;-73
2022/04/01 05:18:12;;;;;;;2.63;2.37;;;5.10;99.30;4.30;96345.00;;;;5018814;28;20204;-73
2022/04/01 05:20:46;;;;;;;1.77;1.67;;;5.00;99.80;4.30;96348.00;;;;5036148;28;20254;-73
2022/04/01 05:23:15;;;;;;;3.10;2.90;;;5.00;99.90;4.30;96353.00;;;;5036241;28;20203;-73
2022/04/01 05:25:46;;;;;;;2.57;2.07;;;5.00;99.90;4.20;96350.00;;;;5036080;28;20251;-74
2022/04/01 05:28:23;;;;;;;1.40;1.30;;;5.00;99.90;4.20;96358.00;;;;5036198;28;20288;-73
2022/04/01 05:31:04;;;;;;;2.00;1.87;;;5.00;99.90;4.20;96361.00;;;;5036088;28;20211;-73
2022/04/01 05:33:41;;;;;;;1.23;1.23;;;4.90;99.70;4.20;96358.00;;;;5035961;28;20239;-73
2022/04/01 05:36:10;;;;;;;3.30;2.47;;;4.90;99.90;4.10;96357.00;;;;5035980;28;20197;-73
2022/04/01 05:38:38;;;;;;;2.20;2.10;;;4.90;99.90;3.90;96359.00;;;;5035890;28;20290;-73
2022/04/01 05:41:06;;;;;;;3.07;2.77;;;4.90;99.90;4.20;96365.00;;;;5018390;28;20319;-73
2022/04/01 05:43:34;;;;;;;6.90;2.90;;;4.80;99.90;4.20;96359.00;;;;5035940;28;20227;-73
2022/04/01 05:46:03;;;;;;;1.87;1.77;;;4.90;99.90;4.20;96372.00;;;;5035798;28;20298;-74
2022/04/01 05:48:32;;;;;;;1.73;1.63;;;4.90;99.90;4.40;96359.00;;;;5035762;28;20193;-73
2022/04/01 05:51:01;;;;;;;3.00;2.67;;;5.00;99.90;4.20;96377.00;;;;5035807;28;20231;-73
2022/04/01 05:53:33;;;;;;;1.63;1.53;;;5.00;99.40;4.10;96385.00;;;;5018198;28;20235;-73
2022/04/01 05:56:03;;;;;;;5.63;2.10;;;4.90;99.90;4.00;96395.00;;;;5035656;28;20795;-73
2022/04/01 05:58:30;;;;;;;3.90;2.63;;;4.80;99.80;4.00;96392.00;;;;5035600;28;20211;-72
2022/04/01 06:01:09;;;;;;;1.87;1.77;;;4.70;99.90;3.90;96391.00;;;;5035481;28;20231;-75
2022/04/01 06:04:18;;;;;;;2.43;2.23;;;4.70;99.50;4.00;96389.00;;;;5035492;28;20209;-74
2022/04/01 06:06:48;;;;;;;2.07;1.87;;;4.70;99.90;3.80;96395.00;;;;5035438;28;20607;-72
2022/04/01 06:09:35;;;;;;;2.70;2.50;;;4.70;99.90;4.10;96393.00;;;;5035490;28;20645;-71
2022/04/01 06:12:10;;;;;;;4.10;3.73;;;4.70;99.90;4.00;96393.00;;;;5035477;28;20748;-71
2022/04/01 06:14:45;;;;;;;2.10;2.00;;;4.80;99.90;3.90;96391.00;;;;5035362;28;20202;-70
2022/04/01 06:17:24;;;;;;;2.73;2.53;;;4.60;99.90;4.00;96401.00;;;;5035383;28;20204;-70
2022/04/01 06:19:56;;;;;;;2.97;2.73;;;4.80;99.90;4.20;96389.00;;;;5035232;28;20303;-69
2022/04/01 06:22:30;;;;;;;3.23;3.00;;;4.80;99.90;4.10;96353.00;;;;5016662;28;20216;-72
2022/04/01 06:25:06;;;;;;;2.47;2.37;;;4.80;99.40;4.00;96392.00;;;;5035274;28;20223;-70
2022/04/01 06:27:39;;;;;;;3.37;3.17;;;4.80;99.90;4.20;96397.00;;;;5035347;28;20259;-70
2022/04/01 06:30:09;;;;;;;2.87;2.67;;;4.80;99.90;4.20;96408.00;;;;5035022;28;20672;-70
2022/04/01 06:32:50;;;;;;;2.80;2.60;;;4.90;99.90;4.20;96405.00;;;;5034891;28;20229;-71
2022/04/01 06:35:24;;;;;;;2.03;1.93;;;4.90;99.90;4.10;96404.00;;;;5017506;28;20526;-71
2022/04/01 06:37:59;;;;;;;2.13;2.03;;;4.90;99.90;4.10;96409.00;;;;5034906;28;20200;-70
2022/04/01 06:40:35;;;;;;;3.37;2.57;;;4.80;99.30;4.10;96402.00;;;;5017670;28;20209;-70
2022/04/01 06:43:04;;;;;;;2.80;2.50;;;4.90;99.90;4.20;96414.00;;;;5034986;28;20287;-71
2022/04/01 06:45:33;;;;;;;2.23;2.03;;;4.90;99.90;4.00;96412.00;;;;5017651;28;20285;-71
2022/04/01 06:48:00;;;;;;;2.37;2.17;;;4.80;99.80;4.00;96424.00;;;;5034857;28;20315;-70
2022/04/01 06:50:27;;;;;;;1.60;1.57;;;4.70;99.90;4.00;96415.00;;;;5034691;28;20576;-71
2022/04/01 06:52:53;;;;;;;6.17;2.13;;;4.80;99.90;4.20;96422.00;;;;5034918;28;20185;-71
2022/04/01 06:55:20;;;;;;;3.37;3.07;;;4.80;99.90;4.10;96418.00;;;;5034617;28;20263;-71
2022/04/01 06:57:47;;;;;;;2.63;2.40;;;4.90;99.50;4.20;96415.00;;;;5034641;28;20224;-71
2022/04/01 07:00:14;;;;;;;2.37;2.27;;;4.90;98.70;4.10;96415.00;;;;5034824;28;20203;-71
2022/04/01 07:02:41;;;;;;;1.70;1.60;;;4.80;98.50;3.90;96425.00;;;;5034723;28;20201;-72
2022/04/01 07:05:10;;;;;;;1.70;1.60;;;4.70;97.90;3.80;96421.00;;;;5035312;28;20286;-72
2022/04/01 07:07:41;;;;;;;2.83;2.63;;;4.60;98.30;4.00;96434.00;;;;5037033;28;20197;-72
2022/04/01 07:10:11;;;;;;;2.37;2.17;;;4.60;99.90;3.90;96423.00;;;;5035074;28;20228;-72
2022/04/01 07:12:38;;;;;;;1.60;1.50;;;4.60;99.10;3.90;96429.00;;;;5017274;28;20611;-72
2022/04/01 07:15:10;;;;;;;3.30;3.00;;;4.70;98.60;3.80;96422.00;;;;5034457;28;20274;-72
2022/04/01 07:17:36;;;;;;;2.60;2.33;;;4.60;98.40;3.90;96425.00;;;;5034414;28;20216;-72
2022/04/01 07:20:04;;;;;;;2.10;1.93;;;4.60;99.80;3.90;96425.00;;;;5034387;28;20235;-72
2022/04/01 07:22:31;;;;;;;1.47;1.47;;;4.60;99.80;4.00;96431.00;;;;5034323;28;20215;-71
2022/04/01 07:24:58;;;;;;;1.93;1.80;;;4.60;99.90;4.10;96431.00;;;;5034367;28;20196;-73
2022/04/01 07:27:24;;;;;;;3.93;3.33;;;4.70;99.30;4.10;96432.00;;;;5034339;28;20210;-72
2022/04/01 07:29:51;;;;;;;3.53;3.23;;;4.80;98.90;4.20;96435.00;;;;5034354;28;20531;-73
2022/04/01 07:32:30;;;;;;;2.43;2.23;;;4.80;99.20;3.80;96429.00;;;;5034355;28;20302;-71
2022/04/01 07:34:57;;;;;;;2.73;2.53;;;4.60;98.00;3.70;96436.00;;;;5034076;28;20234;-71
2022/04/01 07:37:27;;;;;;;2.87;2.60;;;4.60;99.20;3.90;96434.00;;;;5034350;28;20640;-72
2022/04/01 07:39:57;;;;;;;2.10;1.97;;;4.70;99.60;4.00;96436.00;;;;5034104;28;20240;-73
2022/04/01 07:42:24;;;;;;;1.73;1.63;;;4.70;99.10;3.90;96439.00;;;;5034212;28;20254;-73
2022/04/01 07:44:51;;;;;;;2.73;2.57;;;4.70;99.00;4.10;96431.00;;;;5034349;28;20207;-73
2022/04/01 07:47:21;;;;;;;4.00;3.63;;;4.80;99.90;4.20;96443.00;;;;5034219;28;20201;-74
2022/04/01 07:49:48;;;;;;;1.50;1.40;;;4.90;99.90;4.30;96427.00;;;;5033911;28;20311;-71
2022/04/01 07:52:17;;;;;;;2.67;2.53;;;4.90;99.60;4.20;96444.00;;;;5034013;28;20204;-73
2022/04/01 07:54:44;;;;;;;1.80;1.70;;;4.90;99.40;4.30;96447.00;;;;5033684;28;20386;-70
2022/04/01 07:57:15;;;;;;;2.03;1.93;;;4.90;99.10;4.10;96436.00;;;;5034036;28;20197;-74
2022/04/01 07:59:42;;;;;;;2.77;2.57;;;4.90;98.10;4.20;96443.00;;;;5016482;28;20219;-72
2022/04/01 08:02:09;;;;;;;1.67;1.57;;;4.90;98.40;4.20;96434.00;;;;5016388;28;20227;-73
2022/04/01 08:04:36;;;;;;;2.30;2.20;;;4.90;98.90;4.10;96441.00;;;;5016401;28;20206;-73
2022/04/01 08:07:05;;;;;;;2.03;1.93;;;4.90;98.60;4.00;96446.00;;;;5033745;28;20201;-74
2022/04/01 08:09:33;;;;;;;2.20;2.10;;;4.80;97.30;4.00;96456.00;;;;5033849;28;20294;-70
2022/04/01 08:12:01;;;;;;;1.30;1.30;;;4.70;97.90;3.90;96453.00;;;;5016469;28;20266;-71
2022/04/01 08:14:29;;;;;;;3.33;3.03;;;4.70;98.20;4.00;96462.00;;;;5033466;28;20230;-71
2022/04/01 08:16:56;;;;;;;3.33;3.13;;;4.70;99.50;4.00;96466.00;;;;5033819;28;20205;-71
2022/04/01 08:19:22;;;;;;;1.50;1.40;;;4.70;99.30;3.90;96467.00;;;;5033582;28;20290;-71
2022/04/01 08:21:54;;;;;;;1.57;1.57;;;4.70;98.30;4.10;96463.00;;;;5033574;28;20259;-72
2022/04/01 08:24:20;;;;;;;2.73;2.53;;;4.70;99.50;4.00;96471.00;;;;5033526;28;20204;-71
2022/04/01 08:26:47;;;;;;;1.20;1.20;;;4.80;98.20;4.10;96465.00;;;;5033544;28;20257;-72
2022/04/01 08:29:14;;;;;;;1.53;1.47;;;4.80;98.90;4.30;96460.00;;;;5034351;28;20200;-72
2022/04/01 08:31:41;;;;;;;1.07;1.07;;;4.90;99.60;4.10;96485.00;;;;5033338;28;20192;-72
2022/04/01 08:34:09;;;;;;;1.67;1.43;;;4.90;98.00;4.20;96475.00;;;;5016154;28;20228;-73
2022/04/01 08:36:38;;;;;;;2.77;2.57;;;4.80;99.00;4.10;96477.00;;;;5015912;28;20211;-73
2022/04/01 08:39:07;;;;;;;1.93;1.83;;;4.80;97.90;3.90;96486.00;;;;5033338;28;20693;-72
2022/04/01 08:41:33;;;;;;;1.73;1.63;;;4.70;97.60;4.00;96487.00;;;;5033231;28;20330;-72
2022/04/01 08:44:00;;;;;;;1.60;1.43;;;4.80;98.40;4.20;96496.00;;;;5033189;28;20670;-74
2022/04/01 08:46:28;;;;;;;1.23;1.20;;;4.80;99.20;4.20;96499.00;;;;5035347;28;20310;-72
2022/04/01 08:48:55;;;;;;;1.43;1.40;;;4.80;99.00;4.10;96494.00;;;;5036792;28;20289;-72
2022/04/01 08:51:22;;;;;;;1.90;1.80;;;4.80;99.00;4.20;96507.00;;;;5036796;28;20357;-72
2022/04/01 08:53:49;;;;;;;1.73;1.63;;;4.90;99.10;4.20;96505.00;;;;5019035;28;20553;-71
2022/04/01 08:56:20;;;;;;;2.47;2.27;;;4.90;98.40;4.30;96508.00;;;;5036485;28;20297;-71
2022/04/01 08:58:47;;;;;;;1.03;1.03;;;4.90;98.20;4.20;96506.00;;;;5018917;28;20214;-71
2022/04/01 09:01:14;;;;;;;1.20;1.10;;;4.90;97.60;4.20;96499.00;;;;5019548;28;20303;-71
2022/04/01 09:03:43;;;;;;;1.57;1.47;;;4.90;98.20;4.20;96510.00;;;;5038897;28;20200;-71
2022/04/01 09:06:12;;;;;;;1.83;1.73;;;4.90;98.40;4.40;96513.00;;;;5020298;28;20230;-71
2022/04/01 09:08:42;;;;;;;1.73;1.63;;;5.00;98.90;4.20;96515.00;;;;5036947;28;20629;-71
2022/04/01 09:11:12;;;;;;;1.37;1.37;;;5.00;97.40;4.30;96511.00;;;;5036394;28;20224;-71
2022/04/01 09:13:51;;;;;;;1.30;1.20;;;5.00;97.50;4.40;96517.00;;;;5036371;28;20196;-73
2022/04/01 09:16:31;;;;;;;1.37;1.33;;;5.00;97.50;4.20;96524.00;;;;5036828;28;20199;-72
2022/04/01 09:18:59;;;;;;;1.90;1.80;;;5.00;96.20;4.30;96525.00;;;;5036689;28;20254;-73
2022/04/01 09:21:28;;;;;;;1.43;1.43;;;5.00;97.80;4.20;96531.00;;;;5040689;28;20200;-72
2022/04/01 09:23:56;;;;;;;2.17;2.07;;;4.90;97.40;4.20;96533.00;;;;5036494;28;20223;-73
2022/04/01 09:26:30;;;;;;;1.57;1.47;;;5.00;97.50;4.10;96518.00;;;;5036960;28;20354;-72
2022/04/01 09:28:59;;;;;;;2.00;1.90;;;4.90;97.30;4.20;96526.00;;;;5018889;28;20649;-72
2022/04/01 09:31:32;;;;;;;1.83;1.73;;;5.00;97.30;4.30;96539.00;;;;5036096;28;20188;-72
2022/04/01 09:34:00;;;;;;;1.03;1.03;;;5.00;97.40;4.00;96537.00;;;;5018522;28;20630;-71
2022/04/01 09:36:33;;;;;;;1.63;1.57;;;4.80;97.50;3.90;96541.00;;;;5036028;28;20238;-72
2022/04/01 09:39:04;;;;;;;2.53;2.40;;;4.80;97.60;4.00;96541.00;;;;5018510;28;20643;-72
2022/04/01 09:41:35;;;;;;;1.97;1.60;;;4.80;98.50;4.20;96558.00;;;;5035727;28;20252;-72
2022/04/01 09:44:08;;;;;;;1.87;1.77;;;4.90;97.70;4.30;96544.00;;;;5035882;28;20201;-71
2022/04/01 09:46:42;;;;;;;1.10;1.10;;;4.90;97.80;4.20;96555.00;;;;5035782;28;20200;-72
2022/04/01 09:49:09;;;;;;;3.30;3.00;;;4.90;98.30;4.20;96512.00;;;;5035751;28;20559;-73
2022/04/01 09:51:43;;;;;;;1.87;1.63;;;4.90;97.90;4.30;96550.00;;;;5035765;28;20713;-73
2022/04/01 09:54:12;;;;;;;3.40;1.37;;;4.90;98.10;4.20;96553.00;;;;5035520;28;20224;-73
2022/04/01 09:56:45;;;;;;;1.10;1.10;;;4.90;97.80;4.30;96546.00;;;;5035424;28;20283;-73
2022/04/01 09:59:17;;;;;;;1.70;1.70;;;4.90;98.10;4.30;96547.00;;;;5035650;28;20201;-72
2022/04/01 10:01:45;;;;;;;2.13;2.03;;;5.00;98.30;4.40;96544.00;;;;5018024;28;20652;-71
2022/04/01 10:04:14;;;;;;;2.30;1.33;;;5.00;97.60;4.40;96557.00;;;;5035596;28;20729;-73
2022/04/01 10:06:42;;;;;;;1.10;1.10;;;5.00;97.70;4.40;96559.00;;;;5035415;28;20235;-73
2022/04/01 10:09:13;;;;;;;1.37;1.33;;;5.10;98.20;4.50;96560.00;;;;5035696;28;20193;-73
2022/04/01 10:11:43;;;;;;;2.57;1.17;;;5.10;96.70;4.40;96548.00;;;;5035393;28;20262;-72
2022/04/01 10:14:14;;;;;;;1.20;1.20;;;5.10;97.30;4.30;96562.00;;;;5035210;28;20207;-72
2022/04/01 10:16:44;;;;;;;2.10;2.00;;;5.10;97.20;4.40;96560.00;;;;5017956;28;20204;-74
2022/04/01 10:19:17;;;;;;;0.97;0.97;;;5.10;96.50;4.30;96566.00;;;;5035259;28;20311;-74
2022/04/01 10:21:45;;;;;;;1.23;1.23;;;5.00;95.80;4.10;96572.00;;;;5035250;28;20201;-74
2022/04/01 10:24:36;;;;;;;1.77;1.13;;;4.80;95.70;4.00;96568.00;;;;5035195;28;20207;-73
2022/04/01 10:27:21;;;;;;;1.60;1.50;;;4.70;95.70;3.90;96410.00;;;;5018019;28;20223;-75
2022/04/01 10:29:48;;;;;;;0.90;0.90;;;4.60;96.30;3.90;96571.00;;;;5035320;28;20587;-72
2022/04/01 10:32:25;;;;;;;1.33;1.33;;;4.60;97.20;3.90;96578.00;;;;5035057;28;20257;-72
2022/04/01 10:34:54;;;;;;;1.07;1.07;;;4.60;97.50;4.00;96572.00;;;;5034904;28;20309;-74
2022/04/01 10:37:25;;;;;;;0.60;0.60;;;4.70;97.70;4.00;96572.00;;;;5034891;28;20254;-74
2022/04/01 10:39:55;;;;;;;0.77;0.77;;;4.60;97.90;4.00;96570.00;;;;5034987;28;20219;-73
2022/04/01 10:42:27;;;;;;;1.13;1.13;;;4.70;96.70;3.90;96580.00;;;;5035269;28;20667;-71
2022/04/01 10:44:56;;;;;;;1.20;1.10;;;4.60;96.60;3.90;96579.00;;;;5034913;28;20204;-72
2022/04/01 10:53:34;;;;;;;3.10;1.63;;;4.60;96.40;3.90;96586.00;;;;5034864;28;20215;-73
2022/04/01 10:56:31;;;;;;;0.93;0.93;;;4.60;96.70;3.90;96583.00;;;;5017496;28;20235;-74
2022/04/01 10:59:05;;;;;;;0.67;0.67;;;4.60;96.80;3.90;96582.00;;;;5017599;28;20294;-72
2022/04/01 11:01:34;;;;;;;0.90;0.90;;;4.60;96.00;3.90;96586.00;;;;5034567;28;20238;-70
2022/04/01 11:04:01;;;;;;;0.87;0.87;;;4.60;95.10;3.80;96592.00;;;;5034559;28;20193;-71
2022/04/01 11:06:30;;;;;;;0.70;0.70;;;4.50;95.60;3.80;96587.00;;;;5034671;28;20234;-72
2022/04/01 11:09:02;;;;;;;1.00;1.00;;;4.50;95.70;3.90;96589.00;;;;5033628;28;20313;-71
2022/04/01 11:11:29;;;;;;;0.70;0.70;;;4.60;96.30;4.00;96597.00;;;;5016879;28;20306;-71
2022/04/01 11:14:07;;;;;;;0.70;0.70;;;4.70;96.10;4.00;96592.00;;;;5034400;28;20224;-71
2022/04/01 11:16:47;;;;;;;1.10;1.10;;;4.70;95.70;4.10;96597.00;;;;5034714;28;20227;-72
2022/04/01 11:19:16;;;;;;;0.63;0.63;;;4.70;95.00;4.20;96603.00;;;;5034386;28;20286;-71
2022/04/01 11:21:47;;;;;;;0.93;0.93;;;4.80;95.20;4.10;96601.00;;;;5034268;28;20224;-72
2022/04/01 11:24:33;;;;;;;0.90;0.90;;;4.70;94.40;4.10;96602.00;;;;5017012;28;20260;-72
2022/04/01 11:27:07;;;;;;;1.67;1.57;;;4.70;95.40;4.10;96611.00;;;;5034304;28;20192;-71
2022/04/01 11:29:34;;;;;;;1.00;1.00;;;4.80;96.60;4.20;96575.00;;;;5034304;28;20219;-72
2022/04/01 11:32:08;;;;;;;0.60;0.60;;;4.80;96.50;4.20;96609.00;;;;5034296;28;20200;-71